WetterOnline ( https://www.wetteronline.de )

Wetter aktuell Fichtelberg

Aktuelles Wetter: Fichtelberg (1215m)

6-stündlich | Neueste Meldungen
Ortszeit Temperatur Wetter
Sa, 02.03. 7:00 1.4° C Nebel
Sa, 02.03. 1:00 2.8° C leichter Regen
Fr, 01.03. 19:00 3.3° C Nebel
Fr, 01.03. 13:00 6.7° C bedeckt
Fr, 01.03. 7:00 3.6° C wolkenlos
Fr, 01.03. 1:00 3.2° C Nebel
Do, 29.02. 19:00 -0.3° C Nebel
Do, 29.02. 13:00 0.8° C Nebel
Ortszeit Temperatur Wetter
Sa, 02.03. 8:00 1.4° C Nebel
Sa, 02.03. 7:40 1.3° C Nebel
Sa, 02.03. 7:30 1.3° C Nebel
Sa, 02.03. 7:20 1.3° C Nebel
Sa, 02.03. 7:10 1.3° C Nebel
Sa, 02.03. 7:00 1.4° C Nebel
Sa, 02.03. 6:50 1.4° C Nebel
Sa, 02.03. 6:30 1.5° C Nebel
Sa, 02.03. 6:00 1.6° C Nebel
Sa, 02.03. 5:30 1.9° C Nebel
Sa, 02.03. 5:00 2.1° C Nebel
Ortszeit Relative Feuchte Sichtweite
Sa, 02.03. 7:00 99% <100 m
Sa, 02.03. 1:00 99% <100 m
Fr, 01.03. 19:00 99% <100 m
Fr, 01.03. 13:00 77% 35 km
Fr, 01.03. 7:00 87% 28 km
Fr, 01.03. 1:00 99% 0.4 km
Do, 29.02. 19:00 99% <100 m
Do, 29.02. 13:00 98% <100 m
Ortszeit Relative Feuchte Sichtweite
Sa, 02.03. 8:00 100% 100 m
Sa, 02.03. 7:40 100% -
Sa, 02.03. 7:30 99% 100 m
Sa, 02.03. 7:20 99% -
Sa, 02.03. 7:10 99% -
Sa, 02.03. 7:00 99% <100 m
Sa, 02.03. 6:50 99% -
Sa, 02.03. 6:30 100% <100 m
Sa, 02.03. 6:00 99% <100 m
Sa, 02.03. 5:30 99% 100 m
Sa, 02.03. 5:00 99% <100 m
Ortszeit Niederschlagsmenge Niederschlagsart
Sa, 02.03. 7:00 0.7 l/m2 in 12 Std. Regen
Sa, 02.03. 1:00 0.7 l/m2 in 6 Std. Regen
Fr, 01.03. 19:00 0.0 l/m2 in 12 Std. -
Fr, 01.03. 13:00 0.0 l/m2 in 6 Std. -
Fr, 01.03. 7:00 0.0 l/m2 in 12 Std. -
Fr, 01.03. 1:00 0.0 l/m2 in 6 Std. -
Do, 29.02. 19:00 0.0 l/m2 in 12 Std. -
Do, 29.02. 13:00 0.0 l/m2 in 6 Std. -
Ortszeit Niederschlagsmenge Niederschlagsart
Sa, 02.03. 8:00 0.0 l/m2 in 1 Std. -
Sa, 02.03. 7:40 keine Meldung -
Sa, 02.03. 7:30 0.0 l/m2 in 30 Min -
Sa, 02.03. 7:20 keine Meldung -
Sa, 02.03. 7:10 keine Meldung -
Sa, 02.03. 7:00 0.0 l/m2 in 1 Std. Regen
Sa, 02.03. 6:50 keine Meldung -
Sa, 02.03. 6:30 0.0 l/m2 in 30 Min -
Sa, 02.03. 6:00 0.0 l/m2 in 1 Std. -
Sa, 02.03. 5:30 0.0 l/m2 in 30 Min -
Sa, 02.03. 5:00 0.0 l/m2 in 1 Std. -
Ortszeit Stärke Spitze Richtung
km/h Bft. km/h Grad Sektor
Sa, 02.03. 7:00 13 3 - 240° SW
Sa, 02.03. 1:00 24 4 37 190° S
Fr, 01.03. 19:00 19 3 22 110° O
Fr, 01.03. 13:00 7 2 43 200° S
Fr, 01.03. 7:00 33 5 48 190° S
Fr, 01.03. 1:00 30 5 57 180° S
Do, 29.02. 19:00 30 5 41 110° O
Do, 29.02. 13:00 29 5 54 180° S
Ortszeit Stärke Spitze Richtung
km/h Bft. km/h Grad Sektor
Sa, 02.03. 8:00 17 3 - 230° SW
Sa, 02.03. 7:40 19 3 - 220° SW
Sa, 02.03. 7:30 13 3 - 220° SW
Sa, 02.03. 7:20 13 3 - 220° SW
Sa, 02.03. 7:10 - - - - -
Sa, 02.03. 7:00 13 3 22 240° SW
Sa, 02.03. 6:50 13 3 - 240° SW
Sa, 02.03. 6:30 17 3 - 260° W
Sa, 02.03. 6:00 14 3 22 190° S
Sa, 02.03. 5:30 15 3 22 210° SW
Sa, 02.03. 5:00 18 3 32 210° SW
Ortszeit Untergrenze Bedeckung Gattung
total tief tief mittel hoch
Sa, 02.03. 7:00 <30 m 8/8 0/8 - - -
Sa, 02.03. 1:00 <30 m 8/8 0/8 - - -
Fr, 01.03. 19:00 <30 m 8/8 0/8 - - -
Fr, 01.03. 13:00 6600 m 8/8 8/8 - - -
Fr, 01.03. 7:00 - 0/8 0/8 - - -
Fr, 01.03. 1:00 <30 m 8/8 0/8 - - -
Do, 29.02. 19:00 <30 m 8/8 0/8 - - -
Do, 29.02. 13:00 <30 m 7/8 0/8 - - -
Ortszeit Bedeckungsgrad in Achtel und Wolkenuntergrenze
Sa, 02.03. 8:00 8(<30m)
Sa, 02.03. 7:40 8
Sa, 02.03. 7:30 8(<30m)
Sa, 02.03. 7:20 8(<30m)
Sa, 02.03. 7:10 8
Sa, 02.03. 7:00 8(<30m)
Sa, 02.03. 6:50 8(<30m)
Sa, 02.03. 6:30 8(<30m)
Sa, 02.03. 6:00 8(<30m)
Sa, 02.03. 5:30 8(<30m)
Sa, 02.03. 5:00 8(<30m)
Ortszeit Stationsdruck (hPa) Tendenz (hPa in 3 Std.)
Sa, 02.03. 7:00 869 + 1,0
Sa, 02.03. 1:00 868 - 0,6
Fr, 01.03. 19:00 869 + 0,1
Fr, 01.03. 13:00 869 - 0,1
Fr, 01.03. 7:00 869 + 0,5
Fr, 01.03. 1:00 870 - 1,1
Do, 29.02. 19:00 873 - 1,3
Do, 29.02. 13:00 876 - 1,6
Ortszeit Stationsdruck (hPa) Tendenz (hPa in 3 Std.)
Sa, 02.03. 8:00 869 + 1,1
Sa, 02.03. 7:40 869 keine Meldung
Sa, 02.03. 7:30 869 + 1,1
Sa, 02.03. 7:20 869 keine Meldung
Sa, 02.03. 7:10 869 keine Meldung
Sa, 02.03. 7:00 869 + 1,0
Sa, 02.03. 6:50 869 keine Meldung
Sa, 02.03. 6:30 868 + 0,5
Sa, 02.03. 6:00 868 + 0,3
Sa, 02.03. 5:30 868 - 0,1
Sa, 02.03. 5:00 868 - 0,2
Ortszeit Schneehöhe (cm)
Sa, 02.03. 7:00 -
Sa, 02.03. 1:00 -
Fr, 01.03. 19:00 -
Fr, 01.03. 13:00 -
Fr, 01.03. 7:00 -
Fr, 01.03. 1:00 -
Do, 29.02. 19:00 -
Do, 29.02. 13:00 -
Ortszeit Schneehöhe (cm)
Sa, 02.03. 8:00 -
Sa, 02.03. 7:40 -
Sa, 02.03. 7:30 -
Sa, 02.03. 7:20 -
Sa, 02.03. 7:10 -
Sa, 02.03. 7:00 -
Sa, 02.03. 6:50 -
Sa, 02.03. 6:30 -
Sa, 02.03. 6:00 -
Sa, 02.03. 5:30 -
Sa, 02.03. 5:00 -
Link zu dieser Seite / Seite empfehlen

Das Wetter in ...